Time;durP1;ratioP1;P1;durP2;ratioP2;P2;SDS_P1;SDS_P2;PMS_P1;PMS_P2;Temp;Humidity;BMP_temperature;BMP_pressure;BME280_temperature;BME280_humidity;BME280_pressure;Samples;Min_cycle;Max_cycle;Signal;HPM_P1;HPM_P2
2022/09/01 00:01:19;;;;;;;7.07;3.70;;;;;;;25.31;57.24;98669.72;6127270;23;20144;-86
2022/09/01 00:03:47;;;;;;;6.50;3.70;;;;;;;25.24;57.56;98676.81;6101655;23;20163;-87
2022/09/01 00:06:14;;;;;;;6.23;3.13;;;;;;;25.17;57.35;98664.31;6102688;23;20527;-87
2022/09/01 00:08:40;;;;;;;7.70;4.03;;;;;;;25.09;57.38;98672.47;6127513;23;20148;-87
2022/09/01 00:11:06;;;;;;;6.07;3.60;;;;;;;24.97;57.74;98672.91;6127054;23;20190;-87
2022/09/01 00:13:32;;;;;;;9.27;3.47;;;;;;;24.92;57.75;98672.63;6127142;23;20160;-86
2022/09/01 00:16:02;;;;;;;5.80;3.63;;;;;;;24.97;57.90;98674.78;6127655;23;20238;-87
2022/09/01 00:18:29;;;;;;;12.40;4.43;;;;;;;24.88;58.17;98674.00;6127789;23;20140;-87
2022/09/01 00:20:58;;;;;;;5.57;3.07;;;;;;;24.80;58.17;98671.41;6127079;23;20144;-87
2022/09/01 00:23:25;;;;;;;6.67;3.57;;;;;;;24.78;58.47;98670.75;6127022;23;20148;-87
2022/09/01 00:25:50;;;;;;;7.60;3.83;;;;;;;24.78;58.74;98673.44;6101416;23;20151;-87
2022/09/01 00:28:15;;;;;;;7.83;3.43;;;;;;;24.77;58.54;98663.69;6127293;23;20560;-87
2022/09/01 00:30:41;;;;;;;7.80;3.47;;;;;;;24.74;58.68;98665.91;6126463;23;20187;-87
2022/09/01 00:33:07;;;;;;;8.80;3.53;;;;;;;24.73;58.89;98666.94;6127227;23;20179;-87
2022/09/01 00:35:32;;;;;;;8.30;3.30;;;;;;;24.69;58.92;98661.09;6126888;23;20584;-86
2022/09/01 00:37:57;;;;;;;6.43;4.07;;;;;;;24.74;58.88;98661.38;6126965;23;20596;-86
2022/09/01 00:40:23;;;;;;;13.07;3.77;;;;;;;24.73;59.24;98670.44;6127202;23;20167;-86
2022/09/01 00:42:49;;;;;;;7.63;3.90;;;;;;;24.79;58.97;98667.06;6127150;23;20152;-86
2022/09/01 00:45:15;;;;;;;7.00;3.73;;;;;;;24.81;58.82;98666.88;6126815;23;20152;-86
2022/09/01 00:47:41;;;;;;;8.03;3.70;;;;;;;24.73;58.82;98670.44;6126796;23;20198;-87
2022/09/01 00:50:08;;;;;;;11.57;4.63;;;;;;;24.67;58.90;98663.13;6126662;23;20679;-87
2022/09/01 00:52:42;;;;;;;7.37;3.53;;;;;;;24.65;59.22;98669.69;6126755;23;20267;-87
2022/09/01 00:55:15;;;;;;;6.60;4.07;;;;;;;24.64;59.16;98660.78;6127081;23;20210;-87
2022/09/01 00:57:42;;;;;;;7.70;3.83;;;;;;;24.54;59.15;98662.91;6127009;23;20148;-87
2022/09/01 01:00:13;;;;;;;8.90;4.27;;;;;;;24.52;59.70;98661.41;6127315;23;20148;-87
2022/09/01 01:02:40;;;;;;;6.53;3.80;;;;;;;24.47;59.51;98664.66;6126686;23;20155;-87
2022/09/01 01:05:07;;;;;;;6.10;3.20;;;;;;;24.40;60.00;98663.66;6126660;23;20184;-88
2022/09/01 01:07:37;;;;;;;10.80;4.13;;;;;;;24.38;59.70;98657.66;6126517;23;20159;-87
2022/09/01 01:10:08;;;;;;;11.43;3.87;;;;;;;24.35;59.87;98652.66;6126861;23;20168;-86
2022/09/01 01:12:36;;;;;;;12.37;4.20;;;;;;;24.36;59.77;98657.84;6101081;23;20560;-87
2022/09/01 01:15:05;;;;;;;8.07;4.03;;;;;;;24.35;60.37;98655.34;6126582;23;20572;-86
2022/09/01 01:17:31;;;;;;;9.83;4.87;;;;;;;24.37;60.44;98645.31;6126506;23;20158;-87
2022/09/01 01:23:04;;;;;;;10.90;3.93;;;;;;;24.36;60.56;98655.19;6126908;23;20198;-87
2022/09/01 01:25:34;;;;;;;6.50;4.30;;;;;;;24.37;60.50;98656.81;6100971;23;20156;-87
2022/09/01 01:28:10;;;;;;;9.97;4.83;;;;;;;24.39;60.11;98645.94;6126451;23;20152;-87
2022/09/01 01:30:40;;;;;;;8.83;4.57;;;;;;;24.39;60.67;98648.63;6126312;23;20179;-87
2022/09/01 01:33:06;;;;;;;7.07;4.10;;;;;;;24.34;60.69;98637.63;6126361;23;20159;-87
2022/09/01 01:35:32;;;;;;;7.60;4.60;;;;;;;24.40;60.75;98639.56;6126701;23;20569;-87
2022/09/01 01:38:00;;;;;;;6.43;3.87;;;;;;;24.43;60.58;98639.19;6126399;23;20154;-86
2022/09/01 01:40:27;;;;;;;7.70;4.13;;;;;;;24.44;60.52;98652.44;6126401;23;20155;-86
2022/09/01 01:42:53;;;;;;;7.37;4.20;;;;;;;24.43;60.45;98652.59;6126347;23;20151;-86
2022/09/01 01:45:22;;;;;;;9.03;4.20;;;;;;;24.44;60.38;98654.28;6126356;23;20163;-86
2022/09/01 01:47:51;;;;;;;8.93;4.17;;;;;;;24.34;60.84;98646.47;6127005;23;20158;-86
2022/09/01 01:50:23;;;;;;;7.07;3.93;;;;;;;24.26;61.02;98648.41;6126207;23;20262;-87
2022/09/01 01:52:48;;;;;;;12.70;4.30;;;;;;;24.21;60.96;98645.41;6126493;23;20136;-87
2022/09/01 01:55:18;;;;;;;7.53;4.27;;;;;;;24.21;61.31;98634.72;6126687;23;20140;-86
2022/09/01 01:57:48;;;;;;;10.60;4.63;;;;;;;24.16;61.23;98650.47;6126247;23;20218;-86
2022/09/01 02:00:19;;;;;;;7.93;4.53;;;;;;;24.15;61.10;98644.28;6126985;23;20127;-86
2022/09/01 02:02:55;;;;;;;8.33;4.20;;;;;;;24.19;61.30;98637.53;6126964;23;20580;-86
2022/09/01 02:05:27;;;;;;;8.23;4.33;;;;;;;24.12;61.25;98636.59;6100756;23;20171;-86
2022/09/01 02:07:58;;;;;;;10.23;4.57;;;;;;;24.13;61.41;98642.81;6100590;23;20151;-86
2022/09/01 02:10:31;;;;;;;11.87;4.20;;;;;;;24.12;61.42;98641.13;6126222;23;20163;-86
2022/09/01 02:13:03;;;;;;;9.73;4.57;;;;;;;24.15;61.43;98638.09;6126892;23;20144;-86
2022/09/01 02:15:42;;;;;;;8.53;4.00;;;;;;;24.18;61.32;98637.75;6126584;23;20152;-86
2022/09/01 02:18:13;;;;;;;10.03;5.17;;;;;;;24.18;61.43;98640.41;6126590;23;20132;-86
2022/09/01 02:20:39;;;;;;;9.57;5.67;;;;;;;24.11;62.27;98629.56;6126555;23;20151;-86
2022/09/01 02:23:10;;;;;;;11.00;3.90;;;;;;;23.98;63.07;98629.28;6126842;23;20158;-86
2022/09/01 02:25:42;;;;;;;11.37;5.03;;;;;;;23.75;63.40;98628.44;6126843;23;20136;-86
2022/09/01 02:28:14;;;;;;;10.57;5.70;;;;;;;23.67;64.29;98631.16;6126822;23;20148;-86
2022/09/01 02:30:44;;;;;;;13.83;4.50;;;;;;;23.62;64.19;98629.00;6126738;23;20188;-86
2022/09/01 02:33:17;;;;;;;10.27;4.93;;;;;;;23.62;64.19;98626.34;6126458;23;20175;-86
2022/09/01 02:35:44;;;;;;;10.13;5.10;;;;;;;23.60;64.21;98619.50;6126506;23;20549;-86
2022/09/01 02:38:12;;;;;;;8.93;5.17;;;;;;;23.54;64.82;98621.03;6126097;23;20533;-86
2022/09/01 02:40:40;;;;;;;10.97;5.13;;;;;;;23.58;64.65;98626.88;6126047;23;20144;-86
2022/09/01 02:43:05;;;;;;;8.03;4.47;;;;;;;23.62;64.63;98629.00;6126089;23;20222;-86
2022/09/01 02:45:32;;;;;;;11.80;4.93;;;;;;;23.69;64.03;98635.31;6126759;23;20213;-86
2022/09/01 02:47:57;;;;;;;9.70;4.83;;;;;;;23.76;63.62;98633.63;6126395;23;20231;-86
2022/09/01 02:50:25;;;;;;;12.23;5.20;;;;;;;23.70;63.47;98642.34;6126325;23;20203;-86
2022/09/01 02:52:51;;;;;;;8.37;4.83;;;;;;;23.69;63.78;98632.66;6100348;23;20183;-86
2022/09/01 02:55:21;;;;;;;12.73;4.60;;;;;;;23.74;63.40;98627.59;6127327;23;20530;-86
2022/09/01 02:57:48;;;;;;;8.43;4.50;;;;;;;23.73;63.08;98636.66;6127800;23;20171;-87
2022/09/01 03:00:32;;;;;;;11.07;5.07;;;;;;;23.70;63.77;98634.31;6128136;23;20171;-87
2022/09/01 03:02:59;;;;;;;12.90;5.13;;;;;;;23.68;64.06;98630.16;6128165;23;20132;-87
2022/09/01 03:05:28;;;;;;;9.73;5.43;;;;;;;23.68;64.29;98638.19;6102218;23;20226;-86
2022/09/01 03:08:00;;;;;;;10.20;5.40;;;;;;;23.53;64.55;98635.41;6102110;23;20167;-86
2022/09/01 03:10:35;;;;;;;15.53;5.37;;;;;;;23.53;64.58;98630.06;6127912;23;20180;-86
2022/09/01 03:13:05;;;;;;;8.00;4.90;;;;;;;23.45;64.56;98638.16;6128070;23;20162;-86
2022/09/01 03:15:32;;;;;;;9.20;5.00;;;;;;;23.45;64.41;98632.78;6128372;23;20494;-86
2022/09/01 03:17:59;;;;;;;12.07;5.33;;;;;;;23.46;64.54;98642.47;6127641;23;20208;-86
2022/09/01 03:20:27;;;;;;;10.13;5.43;;;;;;;23.34;65.15;98643.00;6127609;23;20179;-86
2022/09/01 03:22:53;;;;;;;10.83;5.57;;;;;;;23.38;65.09;98645.16;6127592;23;20155;-86
2022/09/01 03:25:19;;;;;;;10.03;5.10;;;;;;;23.37;64.87;98648.88;6127562;23;20235;-86
2022/09/01 03:27:46;;;;;;;10.97;5.90;;;;;;;23.37;65.08;98651.56;6128222;23;20148;-86
2022/09/01 03:30:12;;;;;;;8.67;4.47;;;;;;;23.37;64.97;98654.22;6127450;23;20176;-86
2022/09/01 03:32:37;;;;;;;11.57;5.60;;;;;;;23.35;64.63;98650.84;6128154;23;20175;-86
2022/09/01 03:35:03;;;;;;;10.63;5.60;;;;;;;23.29;65.03;98648.03;6101940;23;20163;-86
2022/09/01 03:37:29;;;;;;;9.47;5.00;;;;;;;23.24;65.29;98648.56;6128151;23;20158;-86
2022/09/01 03:39:56;;;;;;;7.93;4.43;;;;;;;23.17;65.67;98644.88;6101890;23;20151;-86
2022/09/01 03:42:24;;;;;;;9.83;5.87;;;;;;;23.20;65.48;98652.56;6128077;23;20159;-86
2022/09/01 03:44:52;;;;;;;10.80;5.43;;;;;;;23.15;65.90;98647.72;6127753;23;20226;-86
2022/09/01 03:47:19;;;;;;;11.80;5.73;;;;;;;23.10;65.73;98647.41;6127662;23;20148;-85
2022/09/01 03:49:48;;;;;;;10.30;5.80;;;;;;;23.15;66.02;98649.56;6127610;23;20198;-86
2022/09/01 03:52:14;;;;;;;9.57;5.37;;;;;;;23.22;65.62;98643.34;6127308;23;20159;-86
2022/09/01 03:54:40;;;;;;;12.00;5.93;;;;;;;23.23;65.29;98646.88;6127170;23;20164;-86
2022/09/01 03:57:08;;;;;;;9.60;5.47;;;;;;;23.14;65.57;98640.72;6127279;23;20568;-86
2022/09/01 03:59:36;;;;;;;8.93;5.83;;;;;;;23.07;65.81;98641.56;6127257;23;20218;-86
2022/09/01 04:02:02;;;;;;;12.27;5.50;;;;;;;23.09;66.20;98658.25;6101485;23;20170;-86
2022/09/01 04:04:31;;;;;;;25.20;6.37;;;;;;;23.11;66.22;98649.06;6100148;23;20164;-86
2022/09/01 04:06:59;;;;;;;10.60;5.80;;;;;;;23.17;66.40;98667.09;6100924;23;20543;-86
2022/09/01 04:09:25;;;;;;;10.60;5.53;;;;;;;23.27;66.02;98656.22;6101254;23;20159;-86
2022/09/01 04:11:51;;;;;;;9.67;4.93;;;;;;;23.27;65.60;98661.56;6127240;23;20159;-86
2022/09/01 04:14:17;;;;;;;11.07;6.13;;;;;;;23.25;66.37;98660.91;6127090;23;20162;-86
2022/09/01 04:19:29;;;;;;;13.10;5.60;;;;;;;23.29;66.22;98664.91;6126025;23;20227;-86
2022/09/01 04:21:59;;;;;;;21.20;6.40;;;;;;;23.31;66.72;98680.78;6127425;23;20154;-86
2022/09/01 04:24:29;;;;;;;12.27;6.10;;;;;;;23.27;66.99;98671.44;6127689;23;20203;-86
2022/09/01 04:26:57;;;;;;;9.83;6.13;;;;;;;23.24;66.91;98676.09;6127035;23;20519;-86
2022/09/01 04:29:26;;;;;;;9.43;5.50;;;;;;;23.25;66.93;98668.91;6127201;23;20152;-86
2022/09/01 04:32:00;;;;;;;12.07;6.97;;;;;;;23.06;68.11;98672.81;6127230;23;20507;-86
2022/09/01 04:34:27;;;;;;;9.23;5.43;;;;;;;23.07;68.14;98669.16;6101004;23;20166;-86
2022/09/01 04:36:55;;;;;;;17.83;5.37;;;;;;;23.17;67.60;98682.31;6100816;23;20541;-86
2022/09/01 04:39:22;;;;;;;10.43;5.23;;;;;;;23.14;67.55;98671.94;6125263;23;20155;-87
2022/09/01 04:41:49;;;;;;;12.30;5.40;;;;;;;23.24;67.50;98672.63;6126816;23;20164;-86
2022/09/01 04:44:17;;;;;;;10.27;5.23;;;;;;;23.46;67.33;98673.72;6126852;23;20630;-86
2022/09/01 04:46:46;;;;;;;11.97;5.60;;;;;;;23.48;67.27;98669.88;6126838;23;20194;-86
2022/09/01 04:49:18;;;;;;;9.37;5.37;;;;;;;23.62;66.84;98671.81;6126767;23;20152;-86
2022/09/01 04:51:46;;;;;;;9.60;5.13;;;;;;;23.80;66.10;98672.41;6126809;23;20155;-85
2022/09/01 04:54:13;;;;;;;19.93;5.23;;;;;;;23.84;65.28;98672.91;6126590;23;20167;-86
2022/09/01 04:56:40;;;;;;;11.00;5.23;;;;;;;23.87;64.88;98666.34;6101127;23;20262;-86
2022/09/01 04:59:07;;;;;;;7.93;5.00;;;;;;;24.05;64.24;98672.28;6126667;23;20218;-86
2022/09/01 05:01:43;;;;;;;8.60;4.97;;;;;;;24.14;64.01;98676.59;6126657;23;20151;-86
2022/09/01 05:04:19;;;;;;;12.13;5.23;;;;;;;24.24;63.68;98678.03;6127350;23;20132;-86
2022/09/01 05:06:48;;;;;;;9.67;5.67;;;;;;;24.33;63.23;98684.16;6127018;23;20556;-86
2022/09/01 05:09:16;;;;;;;10.77;5.47;;;;;;;24.51;62.63;98673.97;6100910;23;20170;-88
2022/09/01 05:11:44;;;;;;;9.23;5.07;;;;;;;24.57;61.53;98678.63;6101004;23;20167;-86
2022/09/01 05:14:11;;;;;;;8.60;4.90;;;;;;;24.69;61.24;98670.97;6100982;23;20156;-87
2022/09/01 05:16:39;;;;;;;10.30;4.63;;;;;;;24.70;61.04;98678.00;6100848;23;20245;-87
2022/09/01 05:19:13;;;;;;;9.77;4.93;;;;;;;24.81;60.64;98672.25;6125382;23;20160;-87
2022/09/01 05:21:44;;;;;;;9.07;5.37;;;;;;;24.83;60.12;98673.72;6126857;23;20140;-87
2022/09/01 05:24:10;;;;;;;7.90;4.53;;;;;;;24.98;59.89;98665.69;6126860;23;20540;-87
2022/09/01 05:26:39;;;;;;;8.20;4.50;;;;;;;25.06;58.95;98668.31;6126497;23;20491;-87
2022/09/01 05:29:12;;;;;;;7.77;4.43;;;;;;;25.13;58.42;98661.16;6126425;23;20160;-87
2022/09/01 05:31:41;;;;;;;8.20;4.77;;;;;;;25.23;58.04;98660.91;6126730;23;20598;-86
2022/09/01 05:34:08;;;;;;;10.23;4.40;;;;;;;25.20;58.59;98662.13;6126719;23;20151;-87
2022/09/01 05:36:35;;;;;;;8.10;4.80;;;;;;;25.21;57.52;98661.09;6100859;23;20163;-89
2022/09/01 05:39:01;;;;;;;6.77;4.13;;;;;;;25.21;57.57;98666.44;6100793;23;20159;-87
2022/09/01 05:41:27;;;;;;;6.57;3.97;;;;;;;25.34;57.58;98665.81;6126357;23;20613;-86
2022/09/01 05:43:53;;;;;;;7.13;4.07;;;;;;;25.47;57.65;98666.84;6126738;23;20159;-87
2022/09/01 05:46:22;;;;;;;7.20;4.27;;;;;;;25.36;57.18;98663.78;6100806;23;20475;-87
2022/09/01 05:48:52;;;;;;;8.27;4.00;;;;;;;25.50;57.29;98665.66;6126626;23;20151;-87
2022/09/01 05:51:21;;;;;;;7.17;4.30;;;;;;;25.67;56.86;98677.84;6126204;23;20171;-87
2022/09/01 05:53:50;;;;;;;7.20;4.43;;;;;;;25.70;56.28;98672.13;6126310;23;20167;-87
2022/09/01 05:56:18;;;;;;;7.43;4.17;;;;;;;25.81;55.81;98671.66;6126310;23;20203;-88
2022/09/01 05:58:47;;;;;;;7.27;4.50;;;;;;;25.88;55.00;98677.06;6126275;23;20158;-88
2022/09/01 06:01:21;;;;;;;7.13;4.50;;;;;;;25.92;54.98;98678.34;6126291;23;20148;-88
2022/09/01 06:03:57;;;;;;;7.07;4.20;;;;;;;26.07;55.65;98677.28;6126608;23;20503;-86
2022/09/01 06:06:26;;;;;;;7.83;3.57;;;;;;;26.23;54.82;98679.78;6126572;23;20540;-86
2022/09/01 06:08:57;;;;;;;8.67;4.07;;;;;;;26.38;54.20;98686.97;6126189;23;20483;-87
2022/09/01 06:11:25;;;;;;;15.50;3.73;;;;;;;26.42;53.46;98686.38;6126198;23;20168;-88
2022/09/01 06:13:51;;;;;;;9.83;4.60;;;;;;;26.51;53.07;98693.31;6100661;23;20639;-87
2022/09/01 06:16:18;;;;;;;5.50;3.53;;;;;;;26.50;52.66;98691.63;6126195;23;20156;-88
2022/09/01 06:18:44;;;;;;;7.47;3.83;;;;;;;26.68;52.94;98688.47;6126215;23;20234;-86
2022/09/01 06:21:13;;;;;;;9.75;4.50;;;;;;;26.83;52.55;98690.09;6100650;23;20152;-87
2022/09/01 06:23:43;;;;;;;7.47;4.03;;;;;;;26.87;51.64;98695.06;6126184;23;20163;-87
2022/09/01 06:26:27;;;;;;;10.73;4.40;;;;;;;26.95;52.43;98689.56;6126221;23;20140;-87
2022/09/01 06:29:05;;;;;;;6.77;4.30;;;;;;;27.26;52.33;98698.91;6126707;23;20132;-87
2022/09/01 06:31:33;;;;;;;8.40;4.70;;;;;;;27.46;51.11;98688.31;6128684;23;20167;-87
2022/09/01 06:34:02;;;;;;;9.60;3.93;;;;;;;27.74;50.66;98683.66;6127992;23;20210;-87
2022/09/01 06:36:31;;;;;;;10.10;4.38;;;;;;;27.98;49.90;98687.69;6127956;23;20484;-88
2022/09/01 06:38:59;;;;;;;6.25;3.75;;;;;;;28.18;48.20;98680.53;6127970;23;20186;-87
2022/09/01 06:41:25;;;;;;;13.75;4.63;;;;;;;28.35;47.67;98689.91;6127998;23;20144;-86
2022/09/01 06:43:52;;;;;;;5.72;3.53;;;;;;;28.49;47.38;98680.78;6127944;23;20482;-87
2022/09/01 06:46:22;;;;;;;8.52;4.18;;;;;;;28.63;47.90;98687.06;6127922;23;20557;-88
2022/09/01 06:48:48;;;;;;;6.00;3.67;;;;;;;28.92;47.33;98685.81;6128637;23;20152;-87
2022/09/01 06:51:16;;;;;;;6.47;3.50;;;;;;;29.12;46.81;98683.94;6127806;23;20217;-87
2022/09/01 06:53:43;;;;;;;6.50;4.10;;;;;;;29.37;45.39;98678.75;6127767;23;20167;-88
2022/09/01 06:56:12;;;;;;;9.73;3.50;;;;;;;29.63;45.38;98682.22;6128178;23;20152;-88
2022/09/01 06:58:40;;;;;;;7.82;3.33;;;;;;;29.93;44.33;98684.41;6127834;23;20151;-87
2022/09/01 07:01:14;;;;;;;7.85;4.40;;;;;;;30.11;43.80;98685.34;6127791;23;20148;-88
2022/09/01 07:03:46;;;;;;;6.43;3.53;;;;;;;30.27;44.09;98687.53;6128468;23;20146;-88
2022/09/01 07:06:13;;;;;;;10.20;4.05;;;;;;;30.49;43.47;98684.53;6128439;23;20140;-87
2022/09/01 07:08:38;;;;;;;7.65;3.75;;;;;;;30.68;43.01;98684.41;6128072;23;20159;-88
2022/09/01 07:11:06;;;;;;;5.90;3.58;;;;;;;30.94;42.62;98697.75;6102189;23;20180;-87
2022/09/01 07:13:33;;;;;;;7.45;3.83;;;;;;;31.16;41.64;98695.44;6127669;23;20151;-88
2022/09/01 07:15:59;;;;;;;7.25;3.38;;;;;;;31.24;42.10;98697.03;6127736;23;20156;-89
2022/09/01 07:18:26;;;;;;;8.77;4.15;;;;;;;31.30;42.01;98690.72;6128036;23;20162;-88
2022/09/01 07:20:53;;;;;;;6.88;3.72;;;;;;;31.41;41.75;98687.28;6101981;23;20647;-87
2022/09/01 07:23:19;;;;;;;7.07;3.90;;;;;;;31.54;41.23;98692.59;6102078;23;20642;-89
2022/09/01 07:25:48;;;;;;;6.75;4.25;;;;;;;31.66;41.05;98698.91;6127556;23;20537;-88
2022/09/01 07:28:16;;;;;;;7.47;3.83;;;;;;;31.69;41.41;98693.06;6102006;23;20568;-88
2022/09/01 07:30:50;;;;;;;7.43;3.67;;;;;;;31.72;41.04;98698.03;6127809;23;20254;-87
2022/09/01 07:33:19;;;;;;;8.75;5.03;;;;;;;31.79;41.75;98692.53;6127902;23;20459;-89
2022/09/01 07:35:45;;;;;;;4.50;3.28;;;;;;;31.82;40.42;98692.88;6127498;23;20612;-87
2022/09/01 07:38:12;;;;;;;8.15;4.07;;;;;;;32.02;40.50;98690.78;6101941;23;20547;-88
2022/09/01 07:40:39;;;;;;;6.47;3.15;;;;;;;32.17;40.61;98691.22;6127305;23;20599;-87
2022/09/01 07:43:08;;;;;;;7.30;2.72;;;;;;;32.41;40.08;98683.16;6127434;23;20580;-88
2022/09/01 07:45:36;;;;;;;7.45;3.47;;;;;;;32.41;38.71;98680.47;6127441;23;20163;-88
2022/09/01 07:48:05;;;;;;;7.43;3.47;;;;;;;32.64;38.49;98688.69;6127757;23;20159;-87
2022/09/01 07:50:35;;;;;;;7.32;3.03;;;;;;;32.70;38.14;98676.91;6101742;23;20266;-88
2022/09/01 07:53:02;;;;;;;5.25;2.25;;;;;;;32.94;37.80;98680.47;6101681;23;20227;-87
2022/09/01 07:55:27;;;;;;;6.38;2.95;;;;;;;33.01;36.97;98679.31;6127708;23;20136;-87
2022/09/01 07:57:53;;;;;;;6.90;3.42;;;;;;;33.14;37.29;98681.00;6127293;23;20226;-88
2022/09/01 08:00:20;;;;;;;5.65;3.00;;;;;;;33.37;36.98;98676.38;6127261;23;20144;-88
2022/09/01 08:02:46;;;;;;;4.97;2.75;;;;;;;33.57;36.05;98680.66;6127217;23;20619;-87
2022/09/01 08:05:17;;;;;;;6.60;2.88;;;;;;;33.15;36.53;98679.94;6127577;23;20156;-87
2022/09/01 08:07:46;;;;;;;5.18;1.95;;;;;;;33.25;36.04;98681.00;6127248;23;20143;-88
2022/09/01 08:10:11;;;;;;;4.47;2.20;;;;;;;33.39;36.18;98676.97;6127464;23;20176;-88
2022/09/01 08:12:37;;;;;;;7.18;2.70;;;;;;;33.55;35.27;98680.00;6127113;23;20552;-88
2022/09/01 08:15:08;;;;;;;6.15;2.65;;;;;;;33.77;35.30;98670.19;6101483;23;20151;-88
2022/09/01 08:17:36;;;;;;;5.75;2.80;;;;;;;33.46;36.45;98682.28;6101521;23;20195;-88
2022/09/01 08:20:02;;;;;;;7.53;2.42;;;;;;;33.50;36.24;98672.56;6127107;23;20155;-88
2022/09/01 08:22:28;;;;;;;9.15;2.83;;;;;;;33.81;35.53;98665.91;6127058;23;20569;-89
2022/09/01 08:24:53;;;;;;;5.78;2.63;;;;;;;34.01;35.00;98667.13;6126474;23;20158;-89
2022/09/01 08:27:19;;;;;;;5.00;2.55;;;;;;;34.12;34.93;98672.84;6126940;23;20151;-88
2022/09/01 08:29:44;;;;;;;6.57;2.70;;;;;;;34.02;34.98;98665.25;6101262;23;20183;-88
2022/09/01 08:32:10;;;;;;;6.82;2.78;;;;;;;33.94;35.29;98669.19;6127238;23;20227;-87
2022/09/01 08:34:36;;;;;;;6.53;2.28;;;;;;;34.00;35.17;98659.22;6101359;23;20253;-88
2022/09/01 08:37:03;;;;;;;4.05;2.20;;;;;;;34.10;34.67;98658.63;6126774;23;20178;-87
2022/09/01 08:39:29;;;;;;;4.47;2.25;;;;;;;34.23;33.84;98656.44;6126847;23;20493;-87
2022/09/01 08:42:22;;;;;;;12.05;2.92;;;;;;;34.21;35.04;98661.31;6126815;23;20152;-88
2022/09/01 08:45:10;;;;;;;4.18;2.30;;;;;;;34.11;33.57;98654.84;6127507;23;20190;-87
2022/09/01 08:47:36;;;;;;;4.32;2.83;;;;;;;33.83;35.24;98653.72;6126164;23;20230;-87
2022/09/01 08:50:04;;;;;;;5.72;2.28;;;;;;;34.09;34.44;98655.09;6126851;23;20172;-87
2022/09/01 08:52:42;;;;;;;4.30;2.10;;;;;;;34.14;34.52;98652.47;6126778;23;20214;-87
2022/09/01 08:55:26;;;;;;;9.85;2.40;;;;;;;34.49;33.52;98644.94;6127455;23;20136;-87
2022/09/01 08:57:56;;;;;;;5.45;2.63;;;;;;;34.79;33.58;98641.09;6101097;23;20226;-87
2022/09/01 09:00:29;;;;;;;5.97;2.63;;;;;;;35.10;32.58;98632.34;6127439;23;20203;-87
2022/09/01 09:03:05;;;;;;;8.45;3.08;;;;;;;35.25;32.39;98629.03;6127355;23;20256;-87
2022/09/01 09:05:59;;;;;;;6.03;2.38;;;;;;;35.15;32.71;98630.53;6127352;23;20198;-88
2022/09/01 09:08:45;;;;;;;5.72;2.70;;;;;;;35.14;33.01;98617.97;6127391;23;20533;-88
2022/09/01 09:11:29;;;;;;;11.13;3.05;;;;;;;35.29;32.53;98616.53;6127149;23;20242;-87
2022/09/01 09:14:10;;;;;;;6.00;2.60;;;;;;;35.39;32.32;98619.41;6127029;23;20179;-87
2022/09/01 09:16:45;;;;;;;5.63;2.58;;;;;;;35.03;32.83;98610.72;6126990;23;20155;-87
2022/09/01 09:19:27;;;;;;;4.53;2.50;;;;;;;35.10;33.21;98614.13;6127239;23;20472;-86
2022/09/01 09:21:55;;;;;;;6.82;2.58;;;;;;;35.11;31.26;98607.59;6126913;23;20605;-87
2022/09/01 09:24:50;;;;;;;6.90;2.40;;;;;;;34.10;32.70;98615.94;6126472;23;20628;-86
2022/09/01 09:27:22;;;;;;;6.85;2.90;;;;;;;34.48;32.18;98613.38;6126490;23;20462;-87
2022/09/01 09:29:53;;;;;;;6.28;2.78;;;;;;;34.89;31.73;98606.69;6127052;23;20494;-87
2022/09/01 09:32:19;;;;;;;6.93;2.45;;;;;;;35.01;32.64;98598.44;6126805;23;20575;-87
2022/09/01 09:34:46;;;;;;;7.85;2.35;;;;;;;34.69;31.70;98613.72;6100852;23;20696;-86
2022/09/01 09:37:16;;;;;;;4.53;1.88;;;;;;;35.07;31.65;98600.16;6126353;23;20564;-86
2022/09/01 09:39:42;;;;;;;5.10;2.50;;;;;;;35.54;30.27;98597.81;6126388;23;20158;-87
2022/09/01 09:42:13;;;;;;;5.20;2.35;;;;;;;35.53;30.29;98597.00;6126370;23;20158;-87
2022/09/01 09:44:51;;;;;;;8.73;2.83;;;;;;;35.31;28.93;98598.88;6127013;23;20152;-86
2022/09/01 09:47:36;;;;;;;6.85;2.35;;;;;;;35.12;29.81;98592.06;6126706;23;20139;-86
2022/09/01 09:50:28;;;;;;;10.27;2.72;;;;;;;35.20;30.52;98583.44;6100621;23;20183;-87
2022/09/01 09:53:10;;;;;;;9.75;2.35;;;;;;;35.42;30.77;98569.84;6126537;23;20226;-86
2022/09/01 09:55:35;;;;;;;4.88;2.72;;;;;;;35.71;30.58;98569.41;6126644;23;20164;-86
2022/09/01 09:58:10;;;;;;;4.72;2.22;;;;;;;35.90;29.24;98567.16;6126304;23;20234;-86
2022/09/01 10:00:35;;;;;;;4.10;2.28;;;;;;;35.80;29.19;98563.50;6126732;23;20139;-85
2022/09/01 10:03:06;;;;;;;12.70;3.25;;;;;;;36.09;29.58;98559.44;6126979;23;20147;-86
2022/09/01 10:05:47;;;;;;;5.45;2.70;;;;;;;36.33;28.93;98560.75;6128383;23;20136;-86
2022/09/01 10:08:38;;;;;;;8.75;2.50;;;;;;;36.09;29.86;98559.44;6128689;23;20552;-87
2022/09/01 10:11:05;;;;;;;10.30;2.47;;;;;;;36.31;29.48;98558.28;6112566;23;20183;-87
2022/09/01 10:13:34;;;;;;;4.20;2.30;;;;;;;36.67;28.52;98548.50;6128244;23;20164;-85
2022/09/01 10:16:03;;;;;;;5.93;3.15;;;;;;;36.72;29.00;98551.25;6128258;23;20152;-86
2022/09/01 10:18:37;;;;;;;9.73;2.38;;;;;;;36.84;29.65;98549.16;6128215;23;20603;-85
2022/09/01 10:21:15;;;;;;;8.45;2.15;;;;;;;37.05;27.60;98547.41;6128581;23;20140;-85
2022/09/01 10:23:42;;;;;;;11.77;5.53;;;;;;;37.29;27.50;98553.25;6128454;23;20170;-87
2022/09/01 10:26:20;;;;;;;3.92;2.45;;;;;;;37.04;27.17;98551.22;6128055;23;20155;-86
2022/09/01 10:29:00;;;;;;;10.38;3.13;;;;;;;37.27;28.68;98541.75;6128508;23;20144;-86
2022/09/01 10:31:28;;;;;;;7.93;3.83;;;;;;;37.62;27.31;98552.84;6128322;23;20580;-86
2022/09/01 10:33:54;;;;;;;4.45;2.53;;;;;;;37.81;25.68;98553.19;6128046;23;20576;-86
2022/09/01 10:36:21;;;;;;;7.13;2.30;;;;;;;37.09;27.12;98550.41;6128376;23;20210;-86
2022/09/01 10:38:47;;;;;;;4.38;2.38;;;;;;;37.20;27.75;98543.91;6128021;23;20166;-86
2022/09/01 10:41:43;;;;;;;6.15;2.22;;;;;;;37.38;27.15;98543.44;6128024;23;20148;-86
2022/09/01 10:44:18;;;;;;;76.90;42.58;;;;;;;37.33;26.70;98532.47;6128335;23;20150;-87
2022/09/01 10:46:44;;;;;;;7.30;2.35;;;;;;;37.58;26.84;98537.25;6102370;23;20163;-86
2022/09/01 10:49:41;;;;;;;7.43;2.30;;;;;;;37.91;25.88;98540.38;6127655;23;20163;-87
2022/09/01 10:52:06;;;;;;;4.28;1.80;;;;;;;37.76;25.75;98531.28;6126446;23;20175;-86
2022/09/01 10:54:38;;;;;;;5.30;2.08;;;;;;;37.44;26.57;98526.81;6127088;23;20494;-87
2022/09/01 10:57:17;;;;;;;8.73;2.20;;;;;;;36.93;26.77;98522.97;6127177;23;20152;-86
2022/09/01 10:59:42;;;;;;;7.72;2.15;;;;;;;37.34;26.44;98517.72;6101671;23;20227;-86
2022/09/01 11:02:20;;;;;;;4.00;1.73;;;;;;;37.71;26.38;98526.59;6127212;23;20172;-85
2022/09/01 11:04:45;;;;;;;5.43;1.92;;;;;;;38.08;25.48;98516.28;6127554;23;20136;-86
2022/09/01 11:07:17;;;;;;;4.03;2.03;;;;;;;38.10;26.09;98514.09;6127757;23;20550;-87
2022/09/01 11:09:49;;;;;;;5.65;2.08;;;;;;;38.17;25.05;98507.53;6127972;23;20237;-86
2022/09/01 11:12:36;;;;;;;9.48;2.78;;;;;;;38.23;25.90;98504.53;6128817;23;20143;-87
2022/09/01 11:15:35;;;;;;;3.67;1.85;;;;;;;38.43;25.66;98503.72;6127766;23;20143;-86
2022/09/01 11:18:06;;;;;;;5.15;2.13;;;;;;;38.59;25.45;98497.13;6128315;23;20151;-85
2022/09/01 11:20:38;;;;;;;5.40;1.65;;;;;;;38.51;25.83;98500.44;6128061;23;20140;-86
2022/09/01 11:23:26;;;;;;;7.50;2.38;;;;;;;38.35;25.88;98491.41;6127978;23;20657;-85
2022/09/01 11:25:55;;;;;;;4.60;2.25;;;;;;;38.26;25.17;98489.47;6128003;23;20564;-87
2022/09/01 11:28:40;;;;;;;3.53;1.92;;;;;;;38.58;25.46;98473.56;6127568;23;20186;-86
2022/09/01 11:31:07;;;;;;;3.63;1.52;;;;;;;38.53;25.29;98473.56;6128255;23;20660;-87
2022/09/01 11:33:45;;;;;;;5.03;2.90;;;;;;;38.35;25.08;98480.47;6127522;23;20590;-86
2022/09/01 11:36:24;;;;;;;2.75;1.60;;;;;;;38.38;25.05;98482.66;6127815;23;20214;-86
2022/09/01 11:39:06;;;;;;;3.92;2.17;;;;;;;38.75;24.69;98474.13;6128561;23;20521;-86
2022/09/01 11:41:45;;;;;;;4.53;1.88;;;;;;;38.95;24.04;98467.72;6127850;23;20555;-86
2022/09/01 11:44:23;;;;;;;3.05;1.50;;;;;;;38.07;23.47;98476.34;6127759;23;20155;-86
2022/09/01 11:46:50;;;;;;;4.38;1.65;;;;;;;38.36;24.09;98462.94;6128110;23;20140;-86
2022/09/01 11:49:29;;;;;;;3.38;1.60;;;;;;;38.34;24.13;98462.38;6127391;23;20148;-86
2022/09/01 11:51:56;;;;;;;3.38;1.60;;;;;;;38.49;24.15;98461.53;6127758;23;20210;-85